Time;durP1;ratioP1;P1;durP2;ratioP2;P2;SDS_P1;SDS_P2;PMS_P1;PMS_P2;Temp;Humidity;BMP_temperature;BMP_pressure;BME280_temperature;BME280_humidity;BME280_pressure;Samples;Min_cycle;Max_cycle;Signal;HPM_P1;HPM_P2
2024/04/07 00:00:22;;;;;;;2.65;0.32;;;;;;;;;;4949045;28;100270;-49
2024/04/07 00:02:49;;;;;;;2.35;0.20;;;;;;;;;;4949109;28;100087;-50
2024/04/07 00:05:14;;;;;;;3.45;0.30;;;;;;;;;;4961601;28;100220;-49
2024/04/07 00:07:40;;;;;;;2.90;0.30;;;;;;;;;;4952912;28;100123;-49
2024/04/07 00:10:05;;;;;;;3.92;0.20;;;;;;;;;;4956717;28;99733;-51
2024/04/07 00:12:30;;;;;;;2.53;0.40;;;;;;;;;;4950046;28;100482;-51
2024/04/07 00:14:56;;;;;;;1.95;0.20;;;;;;;;;;4949208;28;101367;-50
2024/04/07 00:17:21;;;;;;;4.97;0.20;;;;;;;;;;4954873;28;99721;-49
2024/04/07 00:19:47;;;;;;;3.13;0.30;;;;;;;;;;4956101;28;100324;-49
2024/04/07 00:22:12;;;;;;;3.85;0.52;;;;;;;;;;4952540;28;100063;-49
2024/04/07 00:24:37;;;;;;;2.78;0.20;;;;;;;;;;4954505;28;100328;-49
2024/04/07 00:27:03;;;;;;;2.25;0.17;;;;;;;;;;4949495;28;105731;-49
2024/04/07 00:29:28;;;;;;;0.95;0.13;;;;;;;;;;4963232;28;100188;-49
2024/04/07 00:31:54;;;;;;;2.30;0.25;;;;;;;;;;4953004;28;100286;-49
2024/04/07 00:34:19;;;;;;;3.55;0.30;;;;;;;;;;4955110;28;100263;-50
2024/04/07 00:36:44;;;;;;;2.10;0.20;;;;;;;;;;4957279;28;99924;-49
2024/04/07 00:39:09;;;;;;;2.30;0.20;;;;;;;;;;4952553;28;100745;-51
2024/04/07 00:41:35;;;;;;;3.70;0.32;;;;;;;;;;4949154;28;100138;-51
2024/04/07 00:44:00;;;;;;;2.33;0.25;;;;;;;;;;4949413;28;99734;-49
2024/04/07 00:46:26;;;;;;;4.63;0.20;;;;;;;;;;4930634;28;104100;-49
2024/04/07 00:48:52;;;;;;;1.67;0.20;;;;;;;;;;4958107;28;101162;-49
2024/04/07 00:51:18;;;;;;;1.35;0.20;;;;;;;;;;4960045;28;100116;-49
2024/04/07 00:53:44;;;;;;;1.20;0.20;;;;;;;;;;4953301;28;100035;-51
2024/04/07 00:56:09;;;;;;;3.50;0.30;;;;;;;;;;4955128;28;100126;-51
2024/04/07 00:58:35;;;;;;;1.83;0.20;;;;;;;;;;4943933;28;100296;-49
2024/04/07 01:01:01;;;;;;;1.83;0.20;;;;;;;;;;4955111;28;100176;-49
2024/04/07 01:03:26;;;;;;;3.05;0.20;;;;;;;;;;4946236;28;99764;-49
2024/04/07 01:05:51;;;;;;;2.72;0.10;;;;;;;;;;4958080;28;99944;-49
2024/04/07 01:08:17;;;;;;;2.70;0.30;;;;;;;;;;4951447;28;100172;-49
2024/04/07 01:10:43;;;;;;;2.80;0.20;;;;;;;;;;4960445;28;100131;-49
2024/04/07 01:13:09;;;;;;;2.67;0.10;;;;;;;;;;4953204;28;100235;-49
2024/04/07 01:15:36;;;;;;;2.78;0.20;;;;;;;;;;4956669;28;99952;-49
2024/04/07 01:18:01;;;;;;;3.20;0.30;;;;;;;;;;4947288;28;100271;-49
2024/04/07 01:20:28;;;;;;;2.88;0.30;;;;;;;;;;4958925;28;100136;-49
2024/04/07 01:22:53;;;;;;;2.42;0.20;;;;;;;;;;4955798;28;100070;-49
2024/04/07 01:25:20;;;;;;;1.67;0.20;;;;;;;;;;4945689;28;100452;-49
2024/04/07 01:27:57;;;;;;;4.25;0.20;;;;;;;;;;4953108;28;100128;-49
2024/04/07 01:30:23;;;;;;;4.07;0.22;;;;;;;;;;4954005;28;99787;-49
2024/04/07 01:32:49;;;;;;;2.63;0.20;;;;;;;;;;4951014;28;100358;-49
2024/04/07 01:35:15;;;;;;;3.47;0.20;;;;;;;;;;4958743;28;99987;-52
2024/04/07 01:37:40;;;;;;;5.25;0.30;;;;;;;;;;4954934;28;100198;-51
2024/04/07 01:40:08;;;;;;;1.17;0.10;;;;;;;;;;4951952;28;100188;-49
2024/04/07 01:42:35;;;;;;;3.75;0.40;;;;;;;;;;4954073;28;100456;-49
2024/04/07 01:45:00;;;;;;;3.65;0.30;;;;;;;;;;4942222;28;100423;-49
2024/04/07 01:47:25;;;;;;;2.60;0.50;;;;;;;;;;4953541;28;101046;-49
2024/04/07 01:49:51;;;;;;;3.17;0.30;;;;;;;;;;4955840;28;99834;-49
2024/04/07 01:52:17;;;;;;;3.05;0.20;;;;;;;;;;4964438;28;100322;-49
2024/04/07 01:54:42;;;;;;;3.47;0.30;;;;;;;;;;4959513;28;100139;-49
2024/04/07 01:57:08;;;;;;;1.52;0.20;;;;;;;;;;4955435;28;101238;-49
2024/04/07 01:59:34;;;;;;;4.03;0.20;;;;;;;;;;4956861;28;100102;-49
2024/04/07 02:01:59;;;;;;;1.45;0.20;;;;;;;;;;4938826;28;100815;-49
2024/04/07 02:04:27;;;;;;;4.90;0.20;;;;;;;;;;4951428;28;100840;-49
2024/04/07 02:06:52;;;;;;;3.40;0.20;;;;;;;;;;4946624;28;100230;-49
2024/04/07 02:09:18;;;;;;;3.08;0.20;;;;;;;;;;4955459;28;99862;-49
2024/04/07 02:11:43;;;;;;;2.38;0.25;;;;;;;;;;4955792;28;100171;-49
2024/04/07 02:14:08;;;;;;;2.65;0.30;;;;;;;;;;4953196;28;100224;-49
2024/04/07 02:16:34;;;;;;;2.70;0.65;;;;;;;;;;4960418;28;99904;-49
2024/04/07 02:19:00;;;;;;;2.45;0.30;;;;;;;;;;4956939;28;100170;-49
2024/04/07 02:21:26;;;;;;;3.55;0.28;;;;;;;;;;4953512;28;100085;-49
2024/04/07 02:23:51;;;;;;;3.85;0.43;;;;;;;;;;4961101;28;100303;-49
2024/04/07 02:26:16;;;;;;;2.55;0.30;;;;;;;;;;4955471;28;101100;-49
2024/04/07 02:28:41;;;;;;;3.63;0.30;;;;;;;;;;4958333;28;100105;-49
2024/04/07 02:31:07;;;;;;;4.88;0.22;;;;;;;;;;4961088;28;103582;-49
2024/04/07 02:33:32;;;;;;;3.22;0.25;;;;;;;;;;4957385;28;100650;-49
2024/04/07 02:35:58;;;;;;;3.65;0.20;;;;;;;;;;4958057;28;99870;-49
2024/04/07 02:38:23;;;;;;;2.45;0.30;;;;;;;;;;4956166;28;100277;-49
2024/04/07 02:40:49;;;;;;;3.83;0.35;;;;;;;;;;4949606;28;99859;-49
2024/04/07 02:43:14;;;;;;;2.92;0.20;;;;;;;;;;4954913;28;100360;-49
2024/04/07 02:48:23;;;;;;;5.63;0.90;;;;;;;;;;4951296;28;101075;-49
2024/04/07 02:50:48;;;;;;;4.53;0.20;;;;;;;;;;4962108;28;102459;-49
2024/04/07 02:53:14;;;;;;;3.97;0.25;;;;;;;;;;4950233;28;101274;-49
2024/04/07 02:55:39;;;;;;;2.38;0.30;;;;;;;;;;4962212;28;100162;-49
2024/04/07 02:58:05;;;;;;;4.05;0.50;;;;;;;;;;4954172;28;101369;-48
2024/04/07 03:00:30;;;;;;;2.03;0.20;;;;;;;;;;4952762;28;100265;-49
2024/04/07 03:02:56;;;;;;;4.75;0.60;;;;;;;;;;4961393;28;100424;-49
2024/04/07 03:05:21;;;;;;;4.32;0.80;;;;;;;;;;4958917;28;100090;-49
2024/04/07 03:07:50;;;;;;;2.97;0.20;;;;;;;;;;4958868;28;100677;-49
2024/04/07 03:10:16;;;;;;;4.78;0.30;;;;;;;;;;4959703;28;102048;-49
2024/04/07 03:12:42;;;;;;;3.50;0.30;;;;;;;;;;4958975;28;101018;-49
2024/04/07 03:15:08;;;;;;;5.40;0.20;;;;;;;;;;4944404;28;99754;-48
2024/04/07 03:17:33;;;;;;;1.95;0.20;;;;;;;;;;4958391;28;102307;-49
2024/04/07 03:19:59;;;;;;;3.33;0.30;;;;;;;;;;4957498;28;100142;-49
2024/04/07 03:22:24;;;;;;;3.20;0.40;;;;;;;;;;4953073;28;101232;-49
2024/04/07 03:24:49;;;;;;;2.90;0.75;;;;;;;;;;4960380;28;101231;-49
2024/04/07 03:27:15;;;;;;;4.88;0.30;;;;;;;;;;4961660;28;100102;-49
2024/04/07 03:29:41;;;;;;;2.83;0.30;;;;;;;;;;4955939;28;100637;-48
2024/04/07 03:32:06;;;;;;;2.88;0.25;;;;;;;;;;4955605;28;100039;-49
2024/04/07 03:34:31;;;;;;;3.22;0.40;;;;;;;;;;4961077;28;100045;-49
2024/04/07 03:36:57;;;;;;;1.83;0.30;;;;;;;;;;4955674;28;100289;-48
2024/04/07 03:39:22;;;;;;;3.42;0.20;;;;;;;;;;4960063;28;100619;-49
2024/04/07 03:41:47;;;;;;;2.50;0.30;;;;;;;;;;4964114;28;100078;-48
2024/04/07 03:44:13;;;;;;;4.80;0.55;;;;;;;;;;4955767;28;100108;-48
2024/04/07 03:46:38;;;;;;;2.13;0.73;;;;;;;;;;4959729;28;100388;-48
2024/04/07 03:49:04;;;;;;;4.57;0.30;;;;;;;;;;4962709;28;100383;-51
2024/04/07 03:51:30;;;;;;;2.80;0.32;;;;;;;;;;4953466;28;100069;-51
2024/04/07 03:53:56;;;;;;;3.40;0.30;;;;;;;;;;4959477;28;99723;-48
2024/04/07 03:56:21;;;;;;;4.15;0.30;;;;;;;;;;4962125;28;100274;-48
2024/04/07 03:58:46;;;;;;;3.67;0.30;;;;;;;;;;4959661;28;102161;-48
2024/04/07 04:01:13;;;;;;;2.67;0.20;;;;;;;;;;4955473;28;101966;-48
2024/04/07 04:03:40;;;;;;;1.98;0.28;;;;;;;;;;4964819;28;99813;-48
2024/04/07 04:06:06;;;;;;;4.05;0.50;;;;;;;;;;4960620;28;100658;-49
2024/04/07 04:08:32;;;;;;;4.82;0.65;;;;;;;;;;4959352;28;100367;-48
2024/04/07 04:10:57;;;;;;;4.75;0.28;;;;;;;;;;4954113;28;100129;-49
2024/04/07 04:13:22;;;;;;;3.72;0.30;;;;;;;;;;4956867;28;100057;-48
2024/04/07 04:15:49;;;;;;;2.58;0.20;;;;;;;;;;4958951;28;100255;-49
2024/04/07 04:18:14;;;;;;;4.10;0.30;;;;;;;;;;4957844;28;102090;-49
2024/04/07 04:20:39;;;;;;;3.90;0.30;;;;;;;;;;4957781;28;100397;-48
2024/04/07 04:23:05;;;;;;;2.85;0.28;;;;;;;;;;4960552;28;100254;-49
2024/04/07 04:25:31;;;;;;;2.38;0.40;;;;;;;;;;4963510;28;100201;-49
2024/04/07 04:27:56;;;;;;;3.35;0.20;;;;;;;;;;4956564;28;100297;-49
2024/04/07 04:30:21;;;;;;;4.43;0.30;;;;;;;;;;4954937;28;100254;-51
2024/04/07 04:32:47;;;;;;;6.60;0.38;;;;;;;;;;4959348;28;100772;-51
2024/04/07 04:35:13;;;;;;;3.00;0.22;;;;;;;;;;4960452;28;101355;-49
2024/04/07 04:37:39;;;;;;;3.03;0.40;;;;;;;;;;4958715;28;100121;-49
2024/04/07 04:40:08;;;;;;;5.43;0.20;;;;;;;;;;4958182;28;100214;-49
2024/04/07 04:42:34;;;;;;;3.13;0.28;;;;;;;;;;4957190;28;100903;-49
2024/04/07 04:45:00;;;;;;;5.85;0.30;;;;;;;;;;4950618;28;100302;-48
2024/04/07 04:47:25;;;;;;;4.60;0.30;;;;;;;;;;4963978;28;99752;-49
2024/04/07 04:49:50;;;;;;;2.20;0.52;;;;;;;;;;4959531;28;100108;-49
2024/04/07 04:52:16;;;;;;;3.65;0.63;;;;;;;;;;4957249;28;100114;-48
2024/04/07 04:54:41;;;;;;;4.88;0.40;;;;;;;;;;4954914;28;105669;-49
2024/04/07 04:57:06;;;;;;;4.97;0.30;;;;;;;;;;4957934;28;100186;-49
2024/04/07 04:59:31;;;;;;;4.55;0.20;;;;;;;;;;4952188;28;99949;-48
2024/04/07 05:01:58;;;;;;;6.88;0.70;;;;;;;;;;4959014;28;100246;-49
2024/04/07 05:04:24;;;;;;;3.35;0.30;;;;;;;;;;4956015;28;100040;-52
2024/04/07 05:06:50;;;;;;;4.50;0.30;;;;;;;;;;4957298;28;99889;-51
2024/04/07 05:09:15;;;;;;;2.97;0.30;;;;;;;;;;4954275;28;101775;-49
2024/04/07 05:11:40;;;;;;;4.18;0.40;;;;;;;;;;4960743;28;99988;-48
2024/04/07 05:14:06;;;;;;;4.15;0.30;;;;;;;;;;4960815;28;102115;-48
2024/04/07 05:16:32;;;;;;;3.65;0.45;;;;;;;;;;4960512;28;99979;-48
2024/04/07 05:18:57;;;;;;;8.80;1.00;;;;;;;;;;4950430;28;101034;-48
2024/04/07 05:21:22;;;;;;;4.10;0.40;;;;;;;;;;4959677;28;100427;-49
2024/04/07 05:23:50;;;;;;;3.88;0.30;;;;;;;;;;4957927;28;102007;-49
2024/04/07 05:26:19;;;;;;;4.55;0.40;;;;;;;;;;4957942;28;100003;-48
2024/04/07 05:28:45;;;;;;;;;;;;;;;;;;4960385;28;100318;-49
2024/04/07 05:31:12;;;;;;;4.72;0.30;;;;;;;;;;4956550;28;100005;-48
2024/04/07 05:33:40;;;;;;;5.22;0.50;;;;;;;;;;4959677;28;100237;-51
2024/04/07 05:36:05;;;;;;;2.95;0.30;;;;;;;;;;4957957;28;100087;-51
2024/04/07 05:38:32;;;;;;;4.82;0.43;;;;;;;;;;4952468;28;102400;-51
2024/04/07 05:40:58;;;;;;;2.15;0.30;;;;;;;;;;4959387;28;100372;-51
2024/04/07 05:43:24;;;;;;;3.40;0.40;;;;;;;;;;4958960;28;100253;-48
2024/04/07 05:45:50;;;;;;;4.47;0.90;;;;;;;;;;4959310;28;100040;-49
2024/04/07 05:48:15;;;;;;;3.83;0.40;;;;;;;;;;4956513;28;100147;-48
2024/04/07 05:50:41;;;;;;;2.92;0.55;;;;;;;;;;4961418;28;100078;-48
2024/04/07 05:53:06;;;;;;;2.80;0.30;;;;;;;;;;4953760;28;101097;-48
2024/04/07 05:55:35;;;;;;;2.17;0.20;;;;;;;;;;4955874;28;102105;-49
2024/04/07 05:58:01;;;;;;;3.45;0.50;;;;;;;;;;4958750;28;100220;-48
2024/04/07 06:00:26;;;;;;;4.00;0.40;;;;;;;;;;4960226;28;100287;-48
2024/04/07 06:02:52;;;;;;;2.05;0.32;;;;;;;;;;4955880;28;100149;-48
2024/04/07 06:05:17;;;;;;;3.25;0.35;;;;;;;;;;4950489;28;101322;-48
2024/04/07 06:07:43;;;;;;;4.25;0.22;;;;;;;;;;4957914;28;100408;-48
2024/04/07 06:10:08;;;;;;;3.28;0.28;;;;;;;;;;4951350;28;100165;-49
2024/04/07 06:12:33;;;;;;;4.63;0.40;;;;;;;;;;4961157;28;101300;-48
2024/04/07 06:14:59;;;;;;;4.00;0.68;;;;;;;;;;4948929;28;101461;-48
2024/04/07 06:17:24;;;;;;;5.30;0.50;;;;;;;;;;4950953;28;100591;-48
2024/04/07 06:19:49;;;;;;;2.30;0.40;;;;;;;;;;4957481;28;100856;-48
2024/04/07 06:22:15;;;;;;;5.50;0.60;;;;;;;;;;4936598;28;101320;-48
2024/04/07 06:24:40;;;;;;;3.90;0.40;;;;;;;;;;4952898;28;99921;-48
2024/04/07 06:27:08;;;;;;;4.35;0.30;;;;;;;;;;4956447;28;100674;-48
2024/04/07 06:29:34;;;;;;;3.83;0.30;;;;;;;;;;4951690;28;100422;-49
2024/04/07 06:31:59;;;;;;;4.40;0.40;;;;;;;;;;4952169;28;100249;-54
2024/04/07 06:34:25;;;;;;;4.18;0.30;;;;;;;;;;4958578;28;100349;-53
2024/04/07 06:36:51;;;;;;;4.18;0.70;;;;;;;;;;4961154;28;101749;-53
2024/04/07 06:39:16;;;;;;;3.63;0.30;;;;;;;;;;4956398;28;100238;-49
2024/04/07 06:41:41;;;;;;;4.93;0.35;;;;;;;;;;4958758;28;100141;-50
2024/04/07 06:44:07;;;;;;;3.33;0.30;;;;;;;;;;4958500;28;100830;-49
2024/04/07 06:46:32;;;;;;;2.15;0.28;;;;;;;;;;4957750;28;100550;-49
2024/04/07 06:48:57;;;;;;;5.47;0.60;;;;;;;;;;4956457;28;100201;-53
2024/04/07 06:51:23;;;;;;;5.22;0.28;;;;;;;;;;4954513;28;100096;-53
2024/04/07 06:53:48;;;;;;;6.10;0.90;;;;;;;;;;4957806;28;100278;-54
2024/04/07 06:56:14;;;;;;;5.28;0.55;;;;;;;;;;4963285;28;100155;-53
2024/04/07 06:58:39;;;;;;;6.55;0.60;;;;;;;;;;4955622;28;102132;-52
2024/04/07 07:01:05;;;;;;;6.72;0.60;;;;;;;;;;4952854;28;100409;-49
2024/04/07 07:03:30;;;;;;;5.30;0.77;;;;;;;;;;4954051;28;100395;-53
2024/04/07 07:05:55;;;;;;;5.13;0.40;;;;;;;;;;4957157;28;102205;-54
2024/04/07 07:08:21;;;;;;;3.53;0.30;;;;;;;;;;4937086;28;102398;-53
2024/04/07 07:10:59;;;;;;;4.90;0.28;;;;;;;;;;4950218;28;100473;-54
2024/04/07 07:13:31;;;;;;;5.95;0.30;;;;;;;;;;4959122;28;100204;-54
2024/04/07 07:15:57;;;;;;;4.50;0.40;;;;;;;;;;4952276;28;100135;-55
2024/04/07 07:18:22;;;;;;;3.17;0.40;;;;;;;;;;4955635;28;100550;-56
2024/04/07 07:20:48;;;;;;;3.78;0.30;;;;;;;;;;4954685;28;100228;-56
2024/04/07 07:23:17;;;;;;;2.33;0.30;;;;;;;;;;4952896;28;100019;-56
2024/04/07 07:25:43;;;;;;;4.43;0.20;;;;;;;;;;4957254;28;100262;-56
2024/04/07 07:28:09;;;;;;;5.45;0.60;;;;;;;;;;4956495;28;100359;-57
2024/04/07 07:30:37;;;;;;;2.42;0.30;;;;;;;;;;4958546;28;99827;-57
2024/04/07 07:33:05;;;;;;;2.55;0.20;;;;;;;;;;4953214;28;101862;-56
2024/04/07 07:35:32;;;;;;;4.72;0.50;;;;;;;;;;4959117;28;100273;-51
2024/04/07 07:37:57;;;;;;;4.00;0.30;;;;;;;;;;4961328;28;100747;-52
2024/04/07 07:40:23;;;;;;;4.28;0.40;;;;;;;;;;4958690;28;100489;-56
2024/04/07 07:42:48;;;;;;;3.05;0.20;;;;;;;;;;4956224;28;102186;-55
2024/04/07 07:45:16;;;;;;;6.65;0.30;;;;;;;;;;4953019;28;100628;-55
2024/04/07 07:47:41;;;;;;;2.83;0.20;;;;;;;;;;4960883;28;100071;-55
2024/04/07 07:50:07;;;;;;;4.50;0.40;;;;;;;;;;4955706;28;101116;-52
2024/04/07 07:52:32;;;;;;;6.00;0.30;;;;;;;;;;4920178;28;101363;-51
2024/04/07 07:54:57;;;;;;;3.95;0.30;;;;;;;;;;4949776;28;101972;-56
2024/04/07 07:57:22;;;;;;;3.88;0.43;;;;;;;;;;4961373;28;100754;-55
2024/04/07 07:59:48;;;;;;;4.63;0.43;;;;;;;;;;4941385;28;101571;-54
2024/04/07 08:02:13;;;;;;;5.70;0.28;;;;;;;;;;4959010;28;100314;-54
2024/04/07 08:04:38;;;;;;;4.47;0.30;;;;;;;;;;4954419;28;100319;-51
2024/04/07 08:07:04;;;;;;;2.78;0.30;;;;;;;;;;4957231;28;101016;-51
2024/04/07 08:09:29;;;;;;;3.35;0.52;;;;;;;;;;4951062;28;99728;-57
2024/04/07 08:11:54;;;;;;;4.57;0.50;;;;;;;;;;4958798;28;101116;-57
2024/04/07 08:14:20;;;;;;;3.47;0.20;;;;;;;;;;4951639;28;102318;-56
2024/04/07 08:16:45;;;;;;;3.55;0.17;;;;;;;;;;4953795;28;101501;-56
2024/04/07 08:19:10;;;;;;;2.65;0.30;;;;;;;;;;4957441;28;100348;-57
2024/04/07 08:21:38;;;;;;;4.57;0.32;;;;;;;;;;4962740;28;100151;-56
2024/04/07 08:24:04;;;;;;;2.83;0.28;;;;;;;;;;4956248;28;100481;-57
2024/04/07 08:26:29;;;;;;;3.75;0.20;;;;;;;;;;4958265;28;100142;-56
2024/04/07 08:28:54;;;;;;;2.45;0.30;;;;;;;;;;4956510;28;100041;-57
2024/04/07 08:31:20;;;;;;;3.55;0.52;;;;;;;;;;4956556;28;101498;-60
2024/04/07 08:33:45;;;;;;;1.70;0.25;;;;;;;;;;4954029;28;101518;-57
2024/04/07 08:36:10;;;;;;;4.32;0.17;;;;;;;;;;4956955;28;99803;-57
2024/04/07 08:38:35;;;;;;;2.33;0.15;;;;;;;;;;4956093;28;100174;-57
2024/04/07 08:41:01;;;;;;;4.35;0.20;;;;;;;;;;4957363;28;100242;-57
2024/04/07 08:43:27;;;;;;;1.70;0.10;;;;;;;;;;4961517;28;100027;-57
2024/04/07 08:45:53;;;;;;;4.00;0.10;;;;;;;;;;4954405;28;101322;-56
2024/04/07 08:48:22;;;;;;;3.03;0.20;;;;;;;;;;4955149;28;99929;-57
2024/04/07 08:50:47;;;;;;;0.77;0.20;;;;;;;;;;4960150;28;102459;-57
2024/04/07 08:53:14;;;;;;;4.65;0.17;;;;;;;;;;4945470;28;100208;-57
2024/04/07 08:55:40;;;;;;;2.80;0.43;;;;;;;;;;4955184;28;101837;-57
2024/04/07 08:58:05;;;;;;;2.70;0.28;;;;;;;;;;4951223;28;100303;-57
2024/04/07 09:00:31;;;;;;;2.50;0.10;;;;;;;;;;4952798;28;100142;-56
2024/04/07 09:02:59;;;;;;;7.57;0.20;;;;;;;;;;4953088;28;100522;-57
2024/04/07 09:05:24;;;;;;;1.85;0.10;;;;;;;;;;4959059;28;100236;-51
2024/04/07 09:07:50;;;;;;;2.53;0.15;;;;;;;;;;4957953;28;100040;-50
2024/04/07 09:10:15;;;;;;;3.03;0.10;;;;;;;;;;4949815;28;100267;-56
2024/04/07 09:12:41;;;;;;;3.22;0.73;;;;;;;;;;4951970;28;101231;-56
2024/04/07 09:15:09;;;;;;;2.28;0.00;;;;;;;;;;4953927;28;102618;-56
2024/04/07 09:17:34;;;;;;;3.40;0.40;;;;;;;;;;4954569;28;100480;-56
2024/04/07 09:19:59;;;;;;;3.85;0.20;;;;;;;;;;4942253;28;101231;-51
2024/04/07 09:22:25;;;;;;;3.33;0.25;;;;;;;;;;4953034;28;100164;-51
2024/04/07 09:24:59;;;;;;;3.40;0.20;;;;;;;;;;4953779;28;101264;-52
2024/04/07 09:27:24;;;;;;;2.00;0.10;;;;;;;;;;4956773;28;100163;-50
2024/04/07 09:29:50;;;;;;;2.92;0.40;;;;;;;;;;4946712;28;100186;-52
2024/04/07 09:32:17;;;;;;;3.38;0.10;;;;;;;;;;4959246;28;99934;-51
2024/04/07 09:34:42;;;;;;;2.35;0.65;;;;;;;;;;4952080;28;100481;-51
2024/04/07 09:37:08;;;;;;;2.35;0.10;;;;;;;;;;4955380;28;100978;-50
2024/04/07 09:39:33;;;;;;;3.13;0.13;;;;;;;;;;4947645;28;100675;-56
2024/04/07 09:42:03;;;;;;;2.47;0.10;;;;;;;;;;4957414;28;100154;-56
2024/04/07 09:44:35;;;;;;;3.72;0.20;;;;;;;;;;4947757;28;101443;-56
2024/04/07 09:47:09;;;;;;;2.28;0.10;;;;;;;;;;4948847;28;100044;-56
2024/04/07 09:49:36;;;;;;;4.13;0.10;;;;;;;;;;4947355;28;100249;-56
2024/04/07 09:52:04;;;;;;;1.33;0.08;;;;;;;;;;4951397;28;100136;-56
2024/04/07 09:54:32;;;;;;;2.63;0.30;;;;;;;;;;4949327;28;100001;-56
2024/04/07 09:56:58;;;;;;;1.33;0.13;;;;;;;;;;4942815;28;101313;-56
2024/04/07 09:59:26;;;;;;;1.55;0.10;;;;;;;;;;4953257;28;100240;-56
2024/04/07 10:01:52;;;;;;;4.05;0.30;;;;;;;;;;4954132;28;100065;-56
2024/04/07 10:04:18;;;;;;;3.08;0.47;;;;;;;;;;4951989;28;101408;-56
2024/04/07 10:06:44;;;;;;;3.42;0.15;;;;;;;;;;4948194;28;100152;-55
2024/04/07 10:09:10;;;;;;;2.60;0.32;;;;;;;;;;4955351;28;99836;-56
2024/04/07 10:11:47;;;;;;;2.72;0.30;;;;;;;;;;4951570;28;100605;-55
2024/04/07 10:14:16;;;;;;;2.05;0.10;;;;;;;;;;4955731;28;100167;-49
2024/04/07 10:16:48;;;;;;;4.68;0.20;;;;;;;;;;4966591;28;100427;-50
2024/04/07 10:19:14;;;;;;;2.03;0.10;;;;;;;;;;4928577;28;101562;-56
2024/04/07 10:21:40;;;;;;;2.53;0.10;;;;;;;;;;4963642;28;99687;-56
2024/04/07 10:24:08;;;;;;;2.90;0.10;;;;;;;;;;4957197;28;100687;-56
2024/04/07 10:26:33;;;;;;;3.03;0.10;;;;;;;;;;4957427;28;100170;-56
2024/04/07 10:28:58;;;;;;;1.55;0.10;;;;;;;;;;4960656;28;101564;-55
2024/04/07 10:31:25;;;;;;;1.52;0.30;;;;;;;;;;4961357;28;100214;-55
2024/04/07 10:33:52;;;;;;;4.18;0.20;;;;;;;;;;4957137;28;100423;-55
2024/04/07 10:36:20;;;;;;;3.40;0.28;;;;;;;;;;4956597;28;100716;-55
2024/04/07 10:38:49;;;;;;;0.97;0.10;;;;;;;;;;4952838;28;100396;-55
2024/04/07 10:41:30;;;;;;;3.50;0.30;;;;;;;;;;4955398;28;99746;-56
2024/04/07 10:43:56;;;;;;;2.55;0.25;;;;;;;;;;4959567;28;100663;-51
2024/04/07 10:46:23;;;;;;;2.42;0.13;;;;;;;;;;4958280;28;100229;-50
2024/04/07 10:48:49;;;;;;;3.65;0.63;;;;;;;;;;4961772;28;100260;-55
2024/04/07 10:51:18;;;;;;;3.20;0.20;;;;;;;;;;4935387;28;102003;-55
2024/04/07 10:53:57;;;;;;;2.00;0.10;;;;;;;;;;4961385;28;100043;-55
2024/04/07 10:56:22;;;;;;;2.50;0.20;;;;;;;;;;4956556;28;102038;-55
2024/04/07 10:58:47;;;;;;;1.85;0.10;;;;;;;;;;4954904;28;100176;-56
2024/04/07 11:01:15;;;;;;;3.78;0.40;;;;;;;;;;4955416;28;100016;-56
2024/04/07 11:03:40;;;;;;;2.08;0.20;;;;;;;;;;4950619;28;100559;-51
2024/04/07 11:06:09;;;;;;;4.32;0.20;;;;;;;;;;4951924;28;100345;-51
2024/04/07 11:08:35;;;;;;;2.42;0.30;;;;;;;;;;4952866;28;101660;-52
2024/04/07 11:11:02;;;;;;;2.40;0.17;;;;;;;;;;4956915;28;100264;-51
2024/04/07 11:13:28;;;;;;;5.00;0.20;;;;;;;;;;4957755;28;100189;-55
2024/04/07 11:15:54;;;;;;;3.15;0.10;;;;;;;;;;4960297;28;101912;-55
2024/04/07 11:18:21;;;;;;;3.15;0.30;;;;;;;;;;4959628;28;100107;-56
2024/04/07 11:20:48;;;;;;;3.95;0.20;;;;;;;;;;4958601;28;99976;-56
2024/04/07 11:23:14;;;;;;;2.03;0.13;;;;;;;;;;4935081;28;100323;-55
2024/04/07 11:25:42;;;;;;;2.65;0.17;;;;;;;;;;4958468;28;102057;-49
2024/04/07 11:28:09;;;;;;;1.00;0.10;;;;;;;;;;4939110;28;100735;-51
2024/04/07 11:30:44;;;;;;;3.05;0.10;;;;;;;;;;4955831;28;100566;-53
2024/04/07 11:33:09;;;;;;;2.40;0.10;;;;;;;;;;4959867;28;100129;-52
2024/04/07 11:35:36;;;;;;;2.72;0.38;;;;;;;;;;4954148;28;101523;-54
2024/04/07 11:38:03;;;;;;;3.70;0.50;;;;;;;;;;4961843;28;100280;-52
2024/04/07 11:40:28;;;;;;;2.95;0.43;;;;;;;;;;4959189;28;100466;-51
2024/04/07 11:42:55;;;;;;;5.82;0.15;;;;;;;;;;4959057;28;100237;-49
2024/04/07 11:45:20;;;;;;;2.22;0.20;;;;;;;;;;4954168;28;101274;-53
2024/04/07 11:47:46;;;;;;;5.95;1.60;;;;;;;;;;4957290;28;101727;-54
2024/04/07 11:50:11;;;;;;;5.18;0.80;;;;;;;;;;4943586;28;101505;-54
2024/04/07 11:52:37;;;;;;;2.85;0.43;;;;;;;;;;4958121;28;100057;-53
2024/04/07 11:55:03;;;;;;;4.15;0.43;;;;;;;;;;4952220;28;100475;-55
2024/04/07 11:57:28;;;;;;;1.95;0.28;;;;;;;;;;4950947;28;100208;-53
2024/04/07 11:59:54;;;;;;;3.25;0.20;;;;;;;;;;4958935;28;100014;-53
2024/04/07 12:02:19;;;;;;;1.63;0.28;;;;;;;;;;4958186;28;100336;-55
2024/04/07 12:04:44;;;;;;;4.60;0.35;;;;;;;;;;4953649;28;100222;-54
2024/04/07 12:07:10;;;;;;;2.17;0.10;;;;;;;;;;4939286;28;100481;-53
2024/04/07 12:09:35;;;;;;;3.08;0.32;;;;;;;;;;4957306;28;101200;-53
2024/04/07 12:12:01;;;;;;;2.70;0.10;;;;;;;;;;4950368;28;100426;-53
2024/04/07 12:14:26;;;;;;;1.90;0.22;;;;;;;;;;4948432;28;99776;-52
2024/04/07 12:16:51;;;;;;;4.13;0.35;;;;;;;;;;4956240;28;101166;-54
2024/04/07 12:19:16;;;;;;;3.05;0.20;;;;;;;;;;4956488;28;100940;-54
2024/04/07 12:21:42;;;;;;;3.00;0.20;;;;;;;;;;4952955;28;101768;-54
2024/04/07 12:24:07;;;;;;;2.78;0.20;;;;;;;;;;4954543;28;102412;-54
2024/04/07 12:26:34;;;;;;;2.67;0.20;;;;;;;;;;4952263;28;100484;-53
2024/04/07 12:28:59;;;;;;;3.78;0.40;;;;;;;;;;4953009;28;100354;-52
2024/04/07 12:31:25;;;;;;;3.08;0.20;;;;;;;;;;4954538;28;100864;-56
2024/04/07 12:33:50;;;;;;;2.22;0.20;;;;;;;;;;4954576;28;100068;-55
2024/04/07 12:36:16;;;;;;;2.03;0.20;;;;;;;;;;4939036;28;102734;-54
2024/04/07 12:38:41;;;;;;;3.03;0.20;;;;;;;;;;4952078;28;100185;-54
2024/04/07 12:41:06;;;;;;;4.20;0.40;;;;;;;;;;4956920;28;100236;-55
2024/04/07 12:43:32;;;;;;;2.67;0.20;;;;;;;;;;4955635;28;102203;-52
2024/04/07 12:45:57;;;;;;;6.22;0.38;;;;;;;;;;4950646;28;100291;-51
2024/04/07 12:48:24;;;;;;;3.53;0.25;;;;;;;;;;4954334;28;100061;-51
2024/04/07 12:50:49;;;;;;;2.63;0.10;;;;;;;;;;4957618;28;100355;-54
2024/04/07 12:53:15;;;;;;;3.53;0.17;;;;;;;;;;4958458;28;100136;-53
2024/04/07 12:55:40;;;;;;;1.85;0.15;;;;;;;;;;4957112;28;100379;-52
2024/04/07 12:58:06;;;;;;;3.50;0.30;;;;;;;;;;4957187;28;100207;-53
2024/04/07 13:00:33;;;;;;;2.92;0.20;;;;;;;;;;4956497;28;100084;-55
2024/04/07 13:03:03;;;;;;;3.15;0.20;;;;;;;;;;4963452;28;99792;-54
2024/04/07 13:05:29;;;;;;;3.40;0.35;;;;;;;;;;4956461;28;99868;-54
2024/04/07 13:07:54;;;;;;;2.47;0.10;;;;;;;;;;4955336;28;100312;-54
2024/04/07 13:10:20;;;;;;;2.22;0.22;;;;;;;;;;4945972;28;100269;-55
2024/04/07 13:12:46;;;;;;;4.50;0.28;;;;;;;;;;4934624;28;100554;-54
2024/04/07 13:15:13;;;;;;;6.15;0.43;;;;;;;;;;4953263;28;100770;-55
2024/04/07 13:17:38;;;;;;;2.10;0.10;;;;;;;;;;4957214;28;102512;-54
2024/04/07 13:20:04;;;;;;;1.98;0.20;;;;;;;;;;4957983;28;100518;-55
2024/04/07 13:22:30;;;;;;;4.22;0.50;;;;;;;;;;4951244;28;100362;-55
2024/04/07 13:24:55;;;;;;;3.67;0.20;;;;;;;;;;4961328;28;100123;-54
2024/04/07 13:27:21;;;;;;;5.38;0.40;;;;;;;;;;4957113;28;100149;-55
2024/04/07 13:29:46;;;;;;;4.30;0.50;;;;;;;;;;4926402;28;100560;-54
2024/04/07 13:32:12;;;;;;;3.97;0.68;;;;;;;;;;4956135;28;99933;-55
2024/04/07 13:34:37;;;;;;;5.93;0.40;;;;;;;;;;4956110;28;100311;-55
2024/04/07 13:37:03;;;;;;;5.03;0.93;;;;;;;;;;4956747;28;101435;-55
2024/04/07 13:39:28;;;;;;;3.72;0.30;;;;;;;;;;4953877;28;100228;-55
2024/04/07 13:41:54;;;;;;;2.05;0.20;;;;;;;;;;4955478;28;100476;-56
2024/04/07 13:44:20;;;;;;;3.65;0.20;;;;;;;;;;4954642;28;100484;-56
2024/04/07 13:46:48;;;;;;;1.75;0.20;;;;;;;;;;4958621;28;100288;-55
2024/04/07 13:49:13;;;;;;;2.05;0.10;;;;;;;;;;4958591;28;100182;-50
2024/04/07 13:51:38;;;;;;;4.00;0.25;;;;;;;;;;4960766;28;100238;-51
2024/04/07 13:54:04;;;;;;;2.00;0.13;;;;;;;;;;4953046;28;100318;-55
2024/04/07 13:56:29;;;;;;;2.95;0.40;;;;;;;;;;4952260;28;101823;-56
2024/04/07 13:58:55;;;;;;;4.57;0.50;;;;;;;;;;4957055;28;101840;-55
2024/04/07 14:01:20;;;;;;;6.32;0.50;;;;;;;;;;4959599;28;101750;-55
2024/04/07 14:03:46;;;;;;;4.30;0.40;;;;;;;;;;4950788;28;103806;-55
2024/04/07 14:06:12;;;;;;;1.58;0.30;;;;;;;;;;4963443;28;101073;-55
2024/04/07 14:08:37;;;;;;;2.55;0.20;;;;;;;;;;4958568;28;102205;-55
2024/04/07 14:11:02;;;;;;;1.20;0.10;;;;;;;;;;4960818;28;100031;-55
2024/04/07 14:13:28;;;;;;;3.78;0.10;;;;;;;;;;4956660;28;100238;-55
2024/04/07 14:15:53;;;;;;;3.33;0.20;;;;;;;;;;4954010;28;104783;-55
2024/04/07 14:18:19;;;;;;;4.38;0.40;;;;;;;;;;4961321;28;100687;-55
2024/04/07 14:20:45;;;;;;;4.53;0.40;;;;;;;;;;4961188;28;100408;-56
2024/04/07 14:23:10;;;;;;;3.50;0.30;;;;;;;;;;4960280;28;101153;-56
2024/04/07 14:25:35;;;;;;;2.90;0.20;;;;;;;;;;4955422;28;100404;-50